Time;durP1;ratioP1;P1;durP2;ratioP2;P2;SDS_P1;SDS_P2;PMS_P1;PMS_P2;Temp;Humidity;BMP_temperature;BMP_pressure;BME280_temperature;BME280_humidity;BME280_pressure;Samples;Min_cycle;Max_cycle;Signal;HPM_P1;HPM_P2
2022/03/26 06:04:41;;;;;;;44.30;23.70;;;9.60;92.70;;;;;;6261400;22;20219;-89
2022/03/26 06:07:07;;;;;;;45.07;24.13;;;9.60;92.60;;;;;;6313209;22;20177;-88
2022/03/26 06:09:34;;;;;;;45.40;23.83;;;9.60;92.80;;;;;;6312101;22;20185;-87
2022/03/26 06:12:00;;;;;;;45.00;23.43;;;9.50;93.00;;;;;;6311454;22;20153;-88
2022/03/26 06:14:26;;;;;;;44.07;23.83;;;9.50;93.10;;;;;;6337590;22;20481;-88
2022/03/26 06:16:52;;;;;;;46.33;24.17;;;9.40;93.30;;;;;;6337245;22;20156;-87
2022/03/26 06:19:17;;;;;;;43.57;24.00;;;9.40;93.20;;;;;;6311255;22;20485;-88
2022/03/26 06:21:43;;;;;;;49.87;24.80;;;9.40;93.40;;;;;;6338933;22;20517;-88
2022/03/26 06:24:09;;;;;;;41.57;23.17;;;9.50;93.40;;;;;;6311313;22;20222;-87
2022/03/26 06:26:37;;;;;;;45.10;24.57;;;9.40;93.40;;;;;;6311389;22;20199;-88
2022/03/26 06:29:03;;;;;;;46.33;24.30;;;9.80;92.50;;;;;;6313465;22;20156;-87
2022/03/26 06:31:29;;;;;;;50.23;25.63;;;9.70;92.70;;;;;;6318521;22;20177;-88
2022/03/26 06:33:55;;;;;;;48.90;24.07;;;9.70;92.80;;;;;;6339058;22;20157;-88
2022/03/26 06:36:21;;;;;;;42.93;24.17;;;9.70;93.20;;;;;;6339107;22;20157;-88
2022/03/26 06:38:48;;;;;;;46.13;24.00;;;9.70;92.80;;;;;;6339073;22;20160;-87
2022/03/26 06:41:15;;;;;;;46.07;24.07;;;9.70;92.70;;;;;;6312881;22;20220;-87
2022/03/26 06:43:42;;;;;;;46.20;24.40;;;9.90;92.70;;;;;;6312919;22;20177;-88
2022/03/26 06:46:08;;;;;;;47.90;25.23;;;10.10;92.10;;;;;;6312827;22;20581;-88
2022/03/26 06:48:34;;;;;;;47.43;25.07;;;10.20;91.80;;;;;;6312546;22;20156;-88
2022/03/26 06:51:02;;;;;;;47.47;24.57;;;10.50;91.30;;;;;;6312857;22;20144;-88
2022/03/26 06:53:29;;;;;;;45.40;24.93;;;10.40;91.50;;;;;;6339252;22;20145;-88
2022/03/26 06:55:55;;;;;;;52.53;25.60;;;10.40;91.70;;;;;;6313480;22;20146;-88
2022/03/26 06:58:20;;;;;;;46.47;24.63;;;10.40;91.70;;;;;;6339274;22;20153;-88
2022/03/26 07:00:46;;;;;;;47.97;25.60;;;10.50;91.60;;;;;;6312828;22;20545;-88
2022/03/26 07:03:12;;;;;;;51.17;25.63;;;10.60;91.40;;;;;;6339008;22;20181;-89
2022/03/26 07:05:37;;;;;;;48.10;25.63;;;10.80;91.00;;;;;;6338712;22;20598;-87
2022/03/26 07:08:04;;;;;;;47.87;25.43;;;10.80;91.10;;;;;;6338494;22;20251;-89
2022/03/26 07:10:30;;;;;;;50.03;24.73;;;10.70;91.10;;;;;;6312778;22;20470;-89
2022/03/26 07:12:55;;;;;;;56.67;27.20;;;10.70;91.30;;;;;;6338716;22;20145;-89
2022/03/26 07:15:21;;;;;;;47.87;26.07;;;10.90;91.20;;;;;;6338213;22;20153;-89
2022/03/26 07:17:48;;;;;;;44.17;25.70;;;11.10;90.90;;;;;;6338842;22;20232;-89
2022/03/26 07:20:14;;;;;;;44.73;25.47;;;11.10;91.00;;;;;;6338923;22;20187;-89
2022/03/26 07:22:41;;;;;;;46.37;27.37;;;11.10;90.80;;;;;;6338813;22;20173;-89
2022/03/26 07:25:09;;;;;;;50.47;27.13;;;11.30;90.10;;;;;;6312779;22;20146;-89
2022/03/26 07:27:35;;;;;;;51.60;26.33;;;11.30;90.20;;;;;;6312513;22;20157;-89
2022/03/26 07:30:04;;;;;;;53.93;25.93;;;11.10;91.00;;;;;;6312625;22;20148;-91
2022/03/26 07:32:30;;;;;;;47.00;25.47;;;11.00;91.50;;;;;;6312262;22;20156;-90
2022/03/26 07:34:55;;;;;;;43.67;25.97;;;11.40;90.70;;;;;;6312249;22;20152;-89
2022/03/26 07:37:21;;;;;;;48.23;27.40;;;11.40;90.30;;;;;;6338018;22;20145;-88
2022/03/26 07:39:47;;;;;;;50.30;25.73;;;11.60;90.20;;;;;;6338517;22;20566;-89
2022/03/26 07:42:13;;;;;;;47.73;26.07;;;11.50;90.20;;;;;;6338703;22;20678;-91
2022/03/26 07:44:38;;;;;;;50.00;27.70;;;11.40;90.50;;;;;;6337637;22;20149;-90
2022/03/26 07:47:04;;;;;;;51.90;27.20;;;11.60;90.00;;;;;;6338928;22;20520;-90
2022/03/26 07:49:31;;;;;;;48.73;27.47;;;11.80;89.50;;;;;;6338462;22;20141;-90
2022/03/26 07:52:00;;;;;;;48.70;28.27;;;11.90;88.20;;;;;;6312730;22;20639;-94
2022/03/26 07:54:26;;;;;;;47.27;26.57;;;12.20;87.40;;;;;;6312205;22;20152;-90
2022/03/26 07:56:52;;;;;;;46.20;28.00;;;12.20;87.00;;;;;;6312597;22;20141;-89
2022/03/26 07:59:17;;;;;;;52.87;27.90;;;12.30;86.70;;;;;;6338257;22;20276;-90
2022/03/26 08:01:44;;;;;;;52.63;27.80;;;12.50;86.50;;;;;;6338318;22;20146;-90
2022/03/26 08:04:10;;;;;;;55.30;29.63;;;12.50;85.60;;;;;;6337864;22;20559;-90
2022/03/26 08:06:36;;;;;;;54.03;28.43;;;12.70;84.40;;;;;;6338303;22;20370;-89
2022/03/26 08:09:02;;;;;;;50.70;27.63;;;12.60;84.30;;;;;;6338311;22;20149;-89
2022/03/26 08:11:27;;;;;;;53.33;28.70;;;12.60;84.30;;;;;;6312007;22;20149;-90
2022/03/26 08:13:54;;;;;;;51.73;28.43;;;12.60;84.10;;;;;;6337806;22;20149;-89
2022/03/26 08:16:20;;;;;;;52.37;28.20;;;12.70;84.20;;;;;;6338462;22;20176;-89
2022/03/26 08:18:46;;;;;;;49.00;27.03;;;12.80;84.20;;;;;;6338706;22;20153;-90
2022/03/26 08:21:12;;;;;;;55.83;27.07;;;12.80;83.50;;;;;;6338063;22;20151;-90
2022/03/26 08:23:38;;;;;;;51.27;28.50;;;12.80;84.10;;;;;;6337986;22;20181;-90
2022/03/26 08:28:51;;;;;;;46.43;26.77;;;12.90;84.50;;;;;;6338995;22;20566;-89
2022/03/26 08:31:18;;;;;;;52.00;28.80;;;13.00;83.50;;;;;;6311355;22;20218;-91
2022/03/26 08:33:45;;;;;;;49.23;27.80;;;13.10;82.90;;;;;;6312143;22;20169;-89
2022/03/26 08:36:11;;;;;;;48.67;27.70;;;13.20;82.70;;;;;;6338200;22;20577;-89
2022/03/26 08:38:38;;;;;;;46.07;26.90;;;13.10;82.90;;;;;;6311021;22;20145;-89
2022/03/26 08:41:04;;;;;;;57.00;30.57;;;13.30;83.00;;;;;;6311903;22;20180;-90
2022/03/26 08:43:30;;;;;;;46.93;27.00;;;13.40;82.20;;;;;;6337409;22;20184;-89
2022/03/26 08:45:56;;;;;;;55.40;28.70;;;13.40;81.90;;;;;;6312001;22;20159;-89
2022/03/26 08:48:22;;;;;;;47.10;26.97;;;13.30;82.10;;;;;;6338544;22;20158;-94
2022/03/26 08:50:48;;;;;;;59.97;29.13;;;13.50;82.10;;;;;;6338909;22;20587;-94
2022/03/26 08:53:14;;;;;;;53.03;30.07;;;13.60;81.60;;;;;;6312314;22;20159;-94
2022/03/26 08:55:40;;;;;;;51.80;29.20;;;13.60;81.60;;;;;;6337972;22;20517;-94
2022/03/26 08:58:07;;;;;;;52.07;29.27;;;13.60;81.50;;;;;;6313786;22;20182;-96
2022/03/26 09:00:34;;;;;;;53.03;29.00;;;13.70;81.00;;;;;;6339569;22;20152;-93
2022/03/26 09:03:00;;;;;;;48.30;27.03;;;13.70;80.30;;;;;;6312248;22;20187;-96
2022/03/26 09:05:26;;;;;;;50.10;29.13;;;13.90;80.40;;;;;;6315794;22;20250;-94
2022/03/26 09:07:52;;;;;;;54.63;28.77;;;14.00;80.10;;;;;;6348418;22;20174;-92
2022/03/26 09:10:17;;;;;;;50.53;28.70;;;13.90;79.80;;;;;;6347391;22;20141;-96
2022/03/26 09:12:43;;;;;;;47.30;28.67;;;14.00;79.10;;;;;;6346277;22;20163;-96
2022/03/26 09:15:09;;;;;;;53.50;29.83;;;14.10;78.50;;;;;;6342157;22;20257;-94
2022/03/26 09:17:36;;;;;;;44.93;27.07;;;14.00;79.80;;;;;;6338392;22;20147;-93
2022/03/26 09:20:05;;;;;;;52.30;28.33;;;14.00;79.80;;;;;;6311189;22;20522;-95
2022/03/26 09:22:30;;;;;;;53.07;29.00;;;14.10;79.70;;;;;;6311464;22;20185;-95
2022/03/26 09:24:56;;;;;;;52.17;28.90;;;14.30;78.90;;;;;;6339383;22;20152;-96
2022/03/26 09:27:21;;;;;;;56.60;28.63;;;14.40;78.50;;;;;;6339453;22;20599;-95
2022/03/26 09:29:47;;;;;;;48.30;28.77;;;14.40;77.70;;;;;;6345175;22;20184;-96
2022/03/26 09:32:13;;;;;;;49.70;27.07;;;14.50;77.60;;;;;;6342198;22;20155;-94
2022/03/26 09:34:38;;;;;;;57.17;28.93;;;14.40;78.30;;;;;;6343828;22;20207;-91
2022/03/26 09:37:05;;;;;;;48.73;26.97;;;14.50;78.20;;;;;;6338263;22;20268;-94
2022/03/26 09:39:30;;;;;;;51.23;28.93;;;14.70;77.10;;;;;;6338400;22;20233;-94
2022/03/26 09:42:00;;;;;;;45.13;26.50;;;14.80;77.00;;;;;;6337380;22;20208;-91
2022/03/26 09:44:27;;;;;;;47.23;26.60;;;14.90;76.60;;;;;;6337672;22;20219;-87
2022/03/26 09:46:53;;;;;;;50.13;27.97;;;15.00;76.90;;;;;;6312054;22;20145;-96
2022/03/26 09:49:21;;;;;;;51.70;28.17;;;14.90;76.50;;;;;;6338474;22;20146;-92
2022/03/26 09:51:54;;;;;;;54.97;27.90;;;15.10;76.20;;;;;;6337491;22;20156;-95
2022/03/26 10:25:11;;;;;;;43.83;25.43;;;16.00;72.70;;;;;;6278430;22;20203;-91
2022/03/26 14:42:32;;;;;;;18.67;14.13;;;36.40;38.90;;;;;;6203641;22;20212;-89
2022/03/26 14:44:57;;;;;;;23.02;14.25;;;36.30;39.00;;;;;;6334869;22;20165;-82
2022/03/26 14:47:23;;;;;;;21.55;15.43;;;36.40;39.30;;;;;;6336463;22;20168;-82
2022/03/26 14:49:49;;;;;;;24.92;15.40;;;36.60;39.10;;;;;;6338613;22;20137;-82
2022/03/26 14:52:15;;;;;;;21.73;14.25;;;36.30;39.50;;;;;;6312008;22;20195;-82
2022/03/26 14:54:40;;;;;;;20.98;12.88;;;36.40;38.90;;;;;;6336810;22;20499;-83
2022/03/26 14:57:06;;;;;;;18.00;12.93;;;36.60;38.70;;;;;;6338193;22;20141;-82
2022/03/26 14:59:32;;;;;;;18.45;13.65;;;36.70;38.70;;;;;;6336009;22;20153;-83
2022/03/26 15:01:58;;;;;;;20.33;13.05;;;36.30;38.80;;;;;;6339319;22;20149;-82
2022/03/26 15:04:24;;;;;;;18.25;12.07;;;36.20;39.20;;;;;;6336943;22;20145;-83
2022/03/26 15:06:50;;;;;;;17.63;12.57;;;36.10;39.10;;;;;;6315900;22;20173;-82
2022/03/26 15:09:16;;;;;;;20.73;12.43;;;36.40;39.60;;;;;;6281084;22;20154;-82
2022/03/26 15:11:41;;;;;;;14.52;11.60;;;36.40;38.80;;;;;;6280531;22;20602;-85
2022/03/26 15:14:07;;;;;;;19.25;11.82;;;36.30;39.00;;;;;;6279294;22;20240;-83
2022/03/26 15:16:33;;;;;;;18.58;11.52;;;36.60;38.70;;;;;;6277959;22;20150;-82
2022/03/26 15:18:59;;;;;;;16.02;10.25;;;36.70;39.30;;;;;;6279988;22;20177;-83
2022/03/26 15:21:25;;;;;;;17.35;10.50;;;36.60;38.50;;;;;;6279534;22;20567;-83
2022/03/26 15:23:50;;;;;;;15.63;10.15;;;36.30;38.60;;;;;;6279942;22;20173;-82
2022/03/26 15:26:16;;;;;;;17.17;10.68;;;36.20;38.50;;;;;;6280641;22;20156;-82
2022/03/26 15:28:42;;;;;;;17.33;9.95;;;36.10;38.30;;;;;;6305953;22;20158;-82
2022/03/26 15:31:07;;;;;;;17.80;9.50;;;36.00;38.60;;;;;;6279530;22;20164;-82
2022/03/26 15:33:33;;;;;;;15.38;9.52;;;35.40;38.70;;;;;;6280403;22;20185;-82
2022/03/26 15:36:00;;;;;;;13.07;9.23;;;35.40;39.10;;;;;;6280085;22;20149;-82
2022/03/26 15:49:06;;;;;;;11.05;8.30;;;35.10;39.10;;;;;;6175870;22;20222;-88
2022/03/26 15:51:32;;;;;;;14.60;8.02;;;35.00;38.70;;;;;;6311199;22;20179;-86
2022/03/26 15:53:57;;;;;;;15.73;7.93;;;34.70;39.10;;;;;;6310623;22;20589;-86
2022/03/26 15:56:23;;;;;;;10.15;7.13;;;34.60;39.30;;;;;;6310639;22;20220;-86
2022/03/26 15:58:49;;;;;;;11.23;7.63;;;34.50;39.20;;;;;;6309978;22;20157;-86
2022/03/26 16:01:14;;;;;;;9.82;7.85;;;34.70;39.50;;;;;;6309934;22;20621;-86
2022/03/26 16:03:40;;;;;;;11.45;6.95;;;34.60;38.70;;;;;;6310957;22;20193;-87
2022/03/26 16:06:06;;;;;;;7.50;5.95;;;34.50;38.80;;;;;;6310539;22;20173;-85
2022/03/26 16:08:33;;;;;;;9.35;6.50;;;34.30;39.40;;;;;;6310748;22;20145;-86
2022/03/26 16:10:59;;;;;;;7.63;5.35;;;34.30;38.90;;;;;;6310705;22;20153;-85
2022/03/26 16:13:26;;;;;;;9.65;5.70;;;34.10;39.10;;;;;;6310288;22;20153;-85
2022/03/26 16:15:52;;;;;;;8.13;5.15;;;34.00;39.00;;;;;;6310464;22;20210;-85
2022/03/26 16:18:18;;;;;;;11.52;5.40;;;34.00;39.10;;;;;;6309330;22;20157;-86
2022/03/26 16:20:44;;;;;;;7.90;4.90;;;33.90;39.00;;;;;;6337691;22;20193;-85
2022/03/26 16:23:11;;;;;;;8.90;5.05;;;33.80;39.20;;;;;;6337774;22;20495;-86
2022/03/26 16:25:36;;;;;;;6.95;4.88;;;33.60;39.40;;;;;;6310255;22;20151;-85
2022/03/26 16:28:02;;;;;;;7.93;5.10;;;33.60;40.10;;;;;;6308998;22;20160;-86
2022/03/26 16:30:29;;;;;;;8.30;5.22;;;33.50;39.70;;;;;;6309851;22;20149;-86
2022/03/26 16:32:55;;;;;;;9.40;5.18;;;33.30;39.80;;;;;;6309873;22;20145;-85
2022/03/26 16:35:21;;;;;;;6.40;4.97;;;33.20;40.10;;;;;;6310483;22;20149;-86
2022/03/26 16:37:47;;;;;;;8.02;5.28;;;32.80;40.90;;;;;;6310351;22;20573;-86
2022/03/26 16:40:13;;;;;;;7.63;4.68;;;32.90;41.50;;;;;;6310395;22;20224;-86
2022/03/26 16:42:39;;;;;;;7.85;4.90;;;32.80;40.50;;;;;;6310116;22;20172;-85
2022/03/26 16:45:05;;;;;;;6.22;4.25;;;32.60;40.80;;;;;;6310166;22;20157;-85
2022/03/26 16:47:31;;;;;;;7.43;4.75;;;32.20;40.90;;;;;;6310054;22;20146;-85
2022/03/26 16:49:57;;;;;;;7.28;4.50;;;31.80;41.30;;;;;;6309760;22;20278;-85
2022/03/26 16:52:22;;;;;;;7.43;4.65;;;31.60;41.50;;;;;;6310566;22;20153;-86
2022/03/26 16:54:48;;;;;;;6.07;4.65;;;31.40;41.40;;;;;;6310288;22;20641;-86
2022/03/26 16:57:14;;;;;;;8.23;5.75;;;31.30;41.50;;;;;;6309212;22;20641;-87
2022/03/26 16:59:40;;;;;;;7.10;4.35;;;31.30;41.80;;;;;;6311032;22;20154;-86
2022/03/26 17:02:06;;;;;;;7.68;5.15;;;31.00;41.80;;;;;;6310107;22;20176;-86
2022/03/26 17:04:33;;;;;;;10.13;5.03;;;31.00;42.20;;;;;;6310068;22;20153;-84
2022/03/26 17:06:58;;;;;;;7.20;5.28;;;30.80;42.50;;;;;;6309854;22;20165;-86
2022/03/26 17:09:24;;;;;;;7.38;4.40;;;30.50;42.60;;;;;;6309404;22;20155;-86
2022/03/26 17:11:50;;;;;;;8.57;5.03;;;30.10;43.10;;;;;;6309836;22;20494;-86
2022/03/26 17:14:16;;;;;;;9.60;4.53;;;29.80;42.70;;;;;;6310779;22;20152;-86
2022/03/26 17:16:43;;;;;;;7.17;4.50;;;29.30;43.20;;;;;;6310847;22;20214;-86
2022/03/26 17:19:10;;;;;;;7.73;4.50;;;28.70;43.80;;;;;;6310917;22;20165;-86
2022/03/26 17:21:36;;;;;;;8.43;4.13;;;28.20;44.40;;;;;;6310065;22;20202;-86
2022/03/26 17:24:09;;;;;;;8.80;4.90;;;27.70;44.70;;;;;;6310764;22;20613;-86
2022/03/26 17:26:37;;;;;;;7.87;5.53;;;27.40;45.40;;;;;;6309564;22;20141;-86
2022/03/26 17:29:03;;;;;;;12.27;6.00;;;27.00;46.10;;;;;;6310267;22;20531;-86
2022/03/26 17:31:29;;;;;;;9.30;5.90;;;26.70;46.50;;;;;;6309713;22;20577;-87
2022/03/26 17:33:54;;;;;;;9.80;6.33;;;26.50;46.70;;;;;;6310339;22;20163;-86
2022/03/26 17:36:21;;;;;;;11.50;6.00;;;26.30;46.80;;;;;;6309980;22;20149;-86
2022/03/26 17:38:46;;;;;;;10.90;6.77;;;26.10;47.10;;;;;;6310503;22;20156;-87
2022/03/26 17:41:14;;;;;;;8.50;5.63;;;25.80;47.20;;;;;;6311018;22;20156;-86
2022/03/26 17:43:40;;;;;;;9.53;5.87;;;25.60;47.60;;;;;;6310504;22;20634;-87
2022/03/26 17:46:09;;;;;;;7.90;5.50;;;25.50;47.50;;;;;;6310751;22;20153;-86
2022/03/26 17:48:35;;;;;;;9.47;5.37;;;25.20;47.80;;;;;;6308139;22;20168;-84
2022/03/26 17:51:01;;;;;;;8.30;5.27;;;24.70;49.30;;;;;;6336645;22;20153;-85
2022/03/26 17:53:27;;;;;;;8.03;5.93;;;24.60;49.10;;;;;;6308117;22;20278;-84
2022/03/26 17:55:52;;;;;;;8.93;5.70;;;24.60;49.00;;;;;;6309269;22;20159;-90
2022/03/26 17:58:18;;;;;;;8.83;5.80;;;24.50;49.20;;;;;;6311073;22;20234;-84
2022/03/26 18:00:45;;;;;;;8.40;6.00;;;24.20;49.50;;;;;;6310258;22;20175;-84
2022/03/26 18:03:11;;;;;;;8.37;6.27;;;24.10;49.80;;;;;;6309553;22;20181;-85
2022/03/26 18:05:37;;;;;;;8.63;6.37;;;24.00;49.80;;;;;;6310120;22;20176;-85
2022/03/26 18:14:49;;;;;;;7.83;6.23;;;23.10;51.60;;;;;;6339581;22;20219;-88
2022/03/26 18:17:15;;;;;;;9.63;6.57;;;22.80;52.00;;;;;;6310984;22;20153;-89
2022/03/26 18:19:41;;;;;;;12.17;6.33;;;22.80;52.00;;;;;;6311837;22;20534;-88
2022/03/26 18:22:07;;;;;;;9.40;6.10;;;22.80;52.10;;;;;;6311449;22;20145;-89
2022/03/26 18:24:33;;;;;;;10.90;6.23;;;22.80;51.90;;;;;;6311971;22;20250;-88
2022/03/26 18:26:59;;;;;;;8.50;5.83;;;22.80;51.70;;;;;;6312569;22;20172;-88
2022/03/26 18:29:26;;;;;;;10.93;6.37;;;22.80;51.70;;;;;;6313101;22;20226;-88
2022/03/26 18:31:52;;;;;;;9.93;6.17;;;22.70;51.80;;;;;;6312723;22;20157;-89
2022/03/26 18:34:17;;;;;;;8.17;5.73;;;22.50;51.90;;;;;;6312912;22;20487;-89
2022/03/26 18:36:43;;;;;;;7.73;5.77;;;22.50;51.80;;;;;;6312416;22;20145;-89
2022/03/26 18:39:08;;;;;;;10.80;6.00;;;22.30;52.10;;;;;;6312412;22;20230;-89
2022/03/26 18:41:39;;;;;;;8.27;5.63;;;22.30;51.90;;;;;;6311844;22;20647;-88
2022/03/26 18:44:06;;;;;;;9.90;5.90;;;21.90;52.70;;;;;;6308895;22;20275;-88
2022/03/26 18:46:32;;;;;;;8.23;5.83;;;21.80;52.90;;;;;;6310429;22;20157;-88
2022/03/26 18:48:59;;;;;;;13.30;6.00;;;21.50;53.50;;;;;;6311609;22;20168;-88
2022/03/26 18:51:24;;;;;;;9.90;5.87;;;21.50;53.90;;;;;;6312188;22;20516;-88
2022/03/26 18:53:50;;;;;;;7.73;5.90;;;21.40;53.50;;;;;;6311895;22;20205;-88
2022/03/26 18:56:16;;;;;;;8.73;5.83;;;21.40;53.70;;;;;;6312798;22;20153;-88
2022/03/26 18:58:41;;;;;;;9.10;6.00;;;21.20;53.70;;;;;;6312570;22;20148;-89
2022/03/26 19:01:07;;;;;;;11.53;6.03;;;21.10;53.80;;;;;;6310830;22;20543;-89
2022/03/26 19:03:33;;;;;;;15.30;6.17;;;21.10;53.50;;;;;;6311092;22;20192;-89
2022/03/26 19:05:58;;;;;;;9.43;5.93;;;20.90;54.00;;;;;;6312552;22;20244;-89
2022/03/26 19:08:24;;;;;;;9.43;6.43;;;20.90;53.90;;;;;;6312478;22;20155;-89
2022/03/26 19:10:53;;;;;;;9.60;6.17;;;20.70;54.20;;;;;;6312161;22;20206;-89
2022/03/26 19:13:19;;;;;;;9.07;5.93;;;20.70;54.30;;;;;;6312187;22;20180;-89
2022/03/26 19:15:45;;;;;;;9.60;5.57;;;20.50;54.40;;;;;;6312467;22;20194;-89
2022/03/26 19:55:12;;;;;;;19.93;12.47;;;20.10;57.30;;;;;;6338866;22;20536;-90
2022/03/26 19:57:40;;;;;;;22.27;12.97;;;20.10;57.60;;;;;;6317301;22;20152;-91
2022/03/26 20:00:10;;;;;;;26.80;14.10;;;19.90;58.10;;;;;;6314850;22;20231;-91
2022/03/26 20:02:39;;;;;;;24.90;13.50;;;19.80;58.50;;;;;;6312228;22;20506;-91
2022/03/26 20:05:21;;;;;;;26.37;14.13;;;19.80;58.60;;;;;;6311576;22;20230;-92
2022/03/26 20:07:47;;;;;;;27.07;15.00;;;19.70;59.00;;;;;;6312187;22;20191;-91
2022/03/26 20:10:14;;;;;;;26.03;14.00;;;19.60;59.10;;;;;;6338664;22;20199;-91
2022/03/26 20:13:00;;;;;;;27.00;14.60;;;19.50;59.50;;;;;;6339486;22;20160;-91
2022/03/26 20:15:25;;;;;;;27.67;15.07;;;19.40;59.60;;;;;;6311509;22;20227;-92
2022/03/26 20:20:38;;;;;;;26.37;14.97;;;19.20;60.00;;;;;;6339224;22;20233;-91
2022/03/26 21:11:09;;;;;;;32.50;18.87;;;17.90;64.40;;;;;;6341301;22;20227;-94
2022/03/26 21:13:34;;;;;;;33.90;18.27;;;17.70;65.30;;;;;;6340017;22;20148;-93
2022/03/26 21:16:01;;;;;;;36.80;18.47;;;17.70;65.40;;;;;;6339210;22;20295;-92
2022/03/26 21:18:26;;;;;;;35.53;19.17;;;17.70;65.40;;;;;;6337359;22;20153;-93
2022/03/26 21:20:52;;;;;;;31.47;19.17;;;17.80;65.40;;;;;;6337802;22;20231;-93
2022/03/26 21:23:18;;;;;;;36.97;19.17;;;17.90;65.80;;;;;;6337974;22;20216;-93
2022/03/26 21:25:47;;;;;;;32.73;19.50;;;17.80;65.80;;;;;;6337344;22;20172;-93
2022/03/26 21:28:17;;;;;;;35.73;20.30;;;17.70;66.40;;;;;;6339057;22;20142;-92
2022/03/26 21:30:43;;;;;;;34.57;20.63;;;17.60;67.10;;;;;;6338411;22;20153;-93
2022/03/26 21:33:10;;;;;;;34.47;20.00;;;17.60;67.30;;;;;;6337936;22;20236;-93
2022/03/26 21:35:36;;;;;;;33.70;19.33;;;17.50;67.60;;;;;;6339978;22;20139;-92
2022/03/26 21:38:04;;;;;;;37.37;20.37;;;17.50;68.10;;;;;;6338025;22;20599;-93
2022/03/26 21:40:30;;;;;;;34.50;20.77;;;17.50;68.20;;;;;;6344621;22;20154;-93
2022/03/26 21:42:57;;;;;;;38.50;20.33;;;17.40;68.70;;;;;;6343719;22;20185;-89
2022/03/26 21:45:24;;;;;;;36.37;21.13;;;17.50;69.00;;;;;;6337427;22;20150;-94
2022/03/26 21:47:50;;;;;;;34.47;20.83;;;17.30;69.30;;;;;;6338253;22;20156;-94
2022/03/26 21:50:17;;;;;;;34.40;20.27;;;17.10;70.00;;;;;;6339110;22;20146;-93
2022/03/26 21:52:42;;;;;;;34.67;21.00;;;17.10;70.50;;;;;;6337972;22;20151;-91
2022/03/26 21:55:10;;;;;;;34.67;20.93;;;17.10;70.50;;;;;;6337480;22;20181;-93
2022/03/26 21:57:36;;;;;;;34.73;20.60;;;17.00;71.10;;;;;;6338716;22;20145;-91
2022/03/26 22:00:04;;;;;;;30.37;19.10;;;17.00;71.20;;;;;;6338647;22;20198;-84
2022/03/26 22:02:30;;;;;;;35.70;19.77;;;16.90;72.30;;;;;;6336126;22;20172;-84
2022/03/26 22:04:55;;;;;;;32.27;21.13;;;16.90;71.80;;;;;;6335618;22;20204;-83
2022/03/26 22:07:21;;;;;;;32.50;19.93;;;16.90;71.90;;;;;;6335119;22;20487;-84
2022/03/26 22:09:47;;;;;;;36.87;21.33;;;16.80;72.30;;;;;;6334015;22;20223;-84
2022/03/26 22:12:12;;;;;;;35.30;21.83;;;16.70;72.90;;;;;;6333994;22;20154;-84
2022/03/26 22:14:38;;;;;;;36.97;20.40;;;16.70;73.70;;;;;;6334626;22;20585;-84
2022/03/26 22:17:03;;;;;;;31.93;21.60;;;16.70;73.50;;;;;;6336726;22;20145;-83
2022/03/26 22:19:30;;;;;;;35.60;20.93;;;16.80;73.10;;;;;;6338533;22;20555;-84
2022/03/26 22:21:56;;;;;;;34.03;20.93;;;16.70;73.40;;;;;;6338595;22;20588;-84
2022/03/26 22:24:22;;;;;;;34.30;19.63;;;16.60;74.00;;;;;;6338809;22;20199;-83
2022/03/26 22:26:48;;;;;;;36.80;22.10;;;16.50;74.20;;;;;;6338327;22;20151;-84
2022/03/26 22:29:15;;;;;;;34.23;21.13;;;16.50;74.80;;;;;;6338529;22;20184;-84
2022/03/26 22:31:41;;;;;;;35.33;21.50;;;16.50;74.70;;;;;;6338609;22;20198;-85
2022/03/26 22:34:07;;;;;;;35.23;20.73;;;16.40;75.00;;;;;;6338694;22;20141;-84
2022/03/26 22:36:33;;;;;;;34.20;20.70;;;16.40;75.20;;;;;;6338370;22;20153;-84
2022/03/26 22:38:58;;;;;;;34.33;20.70;;;16.40;75.60;;;;;;6338535;22;20154;-84
2022/03/26 22:41:24;;;;;;;34.37;20.23;;;16.30;76.00;;;;;;6338292;22;20149;-84
2022/03/26 22:43:51;;;;;;;30.27;19.83;;;16.20;76.60;;;;;;6339478;22;20193;-84
2022/03/26 22:46:16;;;;;;;35.23;21.37;;;16.20;77.00;;;;;;6338500;22;20167;-84
2022/03/26 22:48:42;;;;;;;34.53;20.00;;;16.10;76.90;;;;;;6338488;22;20566;-84
2022/03/26 22:51:07;;;;;;;35.43;21.40;;;16.10;77.30;;;;;;6338538;22;20144;-83
2022/03/26 22:53:33;;;;;;;35.17;21.30;;;16.10;77.50;;;;;;6338182;22;20234;-84
2022/03/26 22:55:59;;;;;;;35.57;20.97;;;16.00;77.90;;;;;;6338280;22;20149;-83
2022/03/26 22:58:26;;;;;;;31.13;21.20;;;15.90;78.00;;;;;;6337684;22;20226;-84
2022/03/26 23:01:13;;;;;;;33.67;20.77;;;15.70;79.10;;;;;;6338596;22;20185;-83
2022/03/26 23:03:39;;;;;;;33.43;20.47;;;15.70;79.50;;;;;;6337830;22;20176;-83
2022/03/26 23:06:05;;;;;;;33.47;19.63;;;15.50;80.40;;;;;;6337929;22;20203;-83
2022/03/26 23:08:30;;;;;;;34.67;19.90;;;15.40;80.90;;;;;;6337944;22;20157;-83
2022/03/26 23:10:57;;;;;;;32.27;20.63;;;15.30;81.70;;;;;;6339294;22;20176;-82
2022/03/26 23:13:23;;;;;;;33.33;20.80;;;15.30;82.00;;;;;;6337642;22;20533;-83
2022/03/26 23:15:48;;;;;;;33.13;20.77;;;15.30;82.50;;;;;;6338336;22;20137;-83
2022/03/26 23:18:14;;;;;;;31.97;20.23;;;15.40;82.00;;;;;;6338074;22;20161;-83
2022/03/26 23:20:40;;;;;;;31.53;19.33;;;15.20;82.80;;;;;;6337935;22;20458;-83
2022/03/26 23:23:05;;;;;;;29.70;18.93;;;14.90;84.40;;;;;;6337890;22;20169;-83
2022/03/26 23:25:31;;;;;;;33.57;20.37;;;14.80;85.50;;;;;;6338126;22;20141;-84
2022/03/26 23:27:59;;;;;;;33.47;20.73;;;14.80;85.90;;;;;;6337757;22;20157;-84
2022/03/26 23:30:25;;;;;;;30.50;19.30;;;14.70;86.40;;;;;;6338266;22;20145;-84
2022/03/26 23:32:51;;;;;;;32.70;18.90;;;14.60;87.40;;;;;;6338303;22;20142;-83
2022/03/26 23:35:17;;;;;;;34.43;19.67;;;14.50;88.00;;;;;;6338060;22;20141;-84
2022/03/26 23:37:43;;;;;;;33.40;20.27;;;14.40;88.50;;;;;;6337822;22;20151;-84
2022/03/26 23:40:09;;;;;;;30.03;19.40;;;14.30;89.10;;;;;;6337922;22;20590;-84
2022/03/26 23:42:35;;;;;;;28.70;19.03;;;14.20;89.80;;;;;;6337442;22;20187;-84
2022/03/26 23:45:01;;;;;;;29.13;18.87;;;14.20;90.00;;;;;;6337620;22;20206;-84
2022/03/26 23:47:28;;;;;;;31.13;20.13;;;14.10;90.20;;;;;;6337763;22;20228;-84
2022/03/26 23:49:54;;;;;;;28.80;18.90;;;14.10;90.50;;;;;;6339048;22;20222;-84
2022/03/26 23:52:20;;;;;;;32.50;19.43;;;14.00;90.60;;;;;;6337342;22;20589;-83
2022/03/26 23:54:45;;;;;;;33.70;19.33;;;14.00;90.90;;;;;;6337661;22;20142;-83
2022/03/26 23:57:11;;;;;;;32.47;19.70;;;13.90;91.10;;;;;;6337537;22;20201;-82
2022/03/26 23:59:38;;;;;;;28.37;18.27;;;13.90;91.20;;;;;;6337546;22;20176;-83
